Waterloo, Illinois
Current Conditions -  °F | °C
As of 4:53 PM on Saturday 25 Oct 2014 (Local Time) from KCPS Reporting Station
Clear Clear  
Wind Chill: 81°   Ceiling: Unl
Heat Index: 81°   Visibility: 10mi
Dew Point: 53°   Wind: 5mph
Humidity: 38%   Direction: 310°NW
Pressure: 30"   Gusts: NA
Location:  38.33°N, 90.15°W
Report Text: KCPS 252153Z 31004KT 10SM CLR 27/12 A3000 RMK AO2 SLP156 T02720117 $
Loading
Personal Weather Stations






























Interactive Weather Map
Tropical Storm Tracking
New forecast layout! Learn more

10-Day Weather Forecast

Advertisements
Track Severe Weather on mobile